Time;durP1;ratioP1;P1;durP2;ratioP2;P2;SDS_P1;SDS_P2;PMS_P1;PMS_P2;Temp;Humidity;BMP_temperature;BMP_pressure;BME280_temperature;BME280_humidity;BME280_pressure;Samples;Min_cycle;Max_cycle;Signal;HPM_P1;HPM_P2
2022/02/10 04:15:17;;;;;;;21.80;11.52;;;1.90;99.90;;;;;;6256847;23;20022;-91
2022/02/10 04:17:56;;;;;;;21.27;10.90;;;1.90;99.90;;;;;;6245303;23;20004;-91
2022/02/10 14:11:05;;;;;;;26.88;16.58;;;6.10;99.90;;;;;;5113151;28;20035;-96
2022/02/10 14:13:22;;;;;;;28.05;16.83;;;6.10;99.90;;;;;;5106682;28;20093;-94
2022/02/10 14:28:16;;;;;;;25.98;16.05;;;6.00;99.90;;;;;;5096640;28;20017;-94
2022/02/10 14:30:42;;;;;;;29.83;16.92;;;6.00;99.90;;;;;;5089949;28;20052;-94
2022/02/10 14:33:11;;;;;;;31.38;18.30;;;6.00;99.90;;;;;;5078359;28;20047;-95
2022/02/10 14:35:56;;;;;;;32.90;17.55;;;6.00;99.90;;;;;;5075927;28;20039;-96
2022/02/10 15:10:51;;;;;;;30.20;16.83;;;5.90;99.90;;;;;;5077016;28;20048;-96
2022/02/10 15:17:02;;;;;;;23.45;15.32;;;5.70;99.90;;;;;;5057999;28;20079;-95
2022/02/10 15:46:54;;;;;;;25.00;15.90;;;5.60;99.90;;;;;;5056669;28;20027;-95
2022/02/10 15:57:03;;;;;;;23.33;14.70;;;5.50;99.90;;;;;;5055847;28;20022;-94
2022/02/10 16:18:09;;;;;;;27.73;15.70;;;5.30;99.90;;;;;;5055273;28;20025;-94
2022/02/10 16:20:34;;;;;;;29.02;16.08;;;5.30;99.90;;;;;;5054305;28;20137;-95
2022/02/10 16:23:06;;;;;;;27.80;15.27;;;5.30;99.90;;;;;;5054736;28;20045;-96
2022/02/10 16:25:36;;;;;;;26.65;15.63;;;5.30;99.90;;;;;;5077016;28;20034;-94
2022/02/10 16:28:25;;;;;;;23.52;13.93;;;5.30;99.90;;;;;;5084014;28;20389;-92
2022/02/10 16:30:52;;;;;;;25.10;14.55;;;5.30;99.90;;;;;;5074052;28;20060;-94
2022/02/10 16:33:18;;;;;;;30.33;16.77;;;5.30;99.90;;;;;;5074597;28;20021;-96
2022/02/10 16:35:44;;;;;;;32.03;19.15;;;5.30;99.90;;;;;;5073874;28;20025;-96
2022/02/10 16:38:13;;;;;;;30.67;17.88;;;5.20;99.90;;;;;;5074207;28;20028;-95
2022/02/10 16:40:41;;;;;;;27.63;17.00;;;5.30;99.90;;;;;;5074090;28;20063;-96
2022/02/10 16:43:07;;;;;;;29.48;17.90;;;5.20;99.90;;;;;;5074723;28;20021;-95
2022/02/10 16:45:33;;;;;;;28.92;15.32;;;5.20;99.90;;;;;;5074301;28;20020;-95
2022/02/10 16:47:59;;;;;;;26.85;16.48;;;5.20;99.90;;;;;;5073433;28;20022;-96
2022/02/10 16:50:25;;;;;;;27.50;16.98;;;5.20;99.90;;;;;;5073694;28;20021;-95
2022/02/10 16:52:59;;;;;;;33.88;18.80;;;5.20;99.90;;;;;;5085115;28;20031;-96
2022/02/10 17:03:26;;;;;;;28.42;16.05;;;5.20;99.90;;;;;;5075076;28;20035;-94
2022/02/10 17:25:09;;;;;;;31.02;16.95;;;5.00;99.90;;;;;;5094245;28;20055;-96
2022/02/10 17:30:35;;;;;;;41.20;20.05;;;4.60;99.90;;;;;;5094239;28;20016;-95
2022/02/10 17:46:53;;;;;;;32.10;18.85;;;4.00;99.90;;;;;;5075358;28;20013;-96
2022/02/10 17:53:29;;;;;;;38.33;21.17;;;3.80;99.90;;;;;;5096213;28;20027;-96
2022/02/10 17:55:55;;;;;;;43.45;24.50;;;3.70;99.90;;;;;;5085402;28;20024;-96
2022/02/10 17:58:23;;;;;;;49.72;27.77;;;3.60;99.90;;;;;;5090422;28;20021;-96
2022/02/10 18:00:52;;;;;;;42.08;24.02;;;3.60;99.90;;;;;;5080929;28;20029;-96
2022/02/10 18:03:20;;;;;;;41.42;22.52;;;3.60;99.90;;;;;;5087441;28;20119;-96
2022/02/10 18:08:39;;;;;;;44.78;24.77;;;3.50;99.90;;;;;;5095660;28;20080;-96
2022/02/10 18:14:08;;;;;;;39.65;22.15;;;3.40;99.90;;;;;;5064693;28;20056;-96
2022/02/10 18:16:46;;;;;;;40.97;23.42;;;3.30;99.90;;;;;;5053199;28;20056;-96
2022/02/10 18:19:23;;;;;;;40.85;22.92;;;3.30;99.90;;;;;;5033525;28;20029;-96
2022/02/10 19:11:33;;;;;;;43.15;24.23;;;2.90;99.90;;;;;;5067305;28;20110;-96
2022/02/10 19:14:04;;;;;;;44.33;23.65;;;2.90;99.90;;;;;;5079298;28;20025;-96
2022/02/10 19:16:30;;;;;;;45.30;23.63;;;2.90;99.90;;;;;;5087247;28;20025;-96
2022/02/10 19:18:57;;;;;;;45.20;24.02;;;2.80;99.90;;;;;;5078216;28;20088;-96
2022/02/10 19:21:23;;;;;;;44.40;22.00;;;2.80;99.90;;;;;;5078513;28;20049;-96
2022/02/10 19:23:51;;;;;;;46.72;23.60;;;2.80;99.90;;;;;;5086078;28;20025;-96
2022/02/10 19:26:17;;;;;;;42.65;22.65;;;2.80;99.90;;;;;;5084164;28;20025;-95
2022/02/10 19:28:46;;;;;;;43.90;22.23;;;2.70;99.90;;;;;;5064942;28;20024;-96
2022/02/10 19:31:16;;;;;;;39.28;21.75;;;2.70;99.90;;;;;;5077802;28;20413;-96
2022/02/10 19:33:43;;;;;;;48.13;23.45;;;2.70;99.90;;;;;;5081237;28;20024;-96
2022/02/10 19:36:09;;;;;;;94.90;33.40;;;2.70;99.90;;;;;;5076883;28;20048;-94
2022/02/10 19:38:34;;;;;;;105.85;37.25;;;2.70;99.90;;;;;;5075294;28;20047;-93
2022/02/10 19:41:00;;;;;;;64.05;27.00;;;2.60;99.90;;;;;;5075059;28;20409;-93
2022/02/10 19:43:27;;;;;;;45.28;22.80;;;2.60;99.90;;;;;;5075717;28;20059;-96
2022/02/10 19:45:53;;;;;;;44.70;22.38;;;2.60;99.90;;;;;;5075528;28;20025;-96
2022/02/10 19:48:20;;;;;;;47.95;23.23;;;2.60;99.90;;;;;;5075313;28;20031;-95
2022/02/10 19:50:46;;;;;;;48.35;22.83;;;2.60;99.90;;;;;;5075756;28;20546;-96
2022/02/10 19:53:13;;;;;;;47.08;23.40;;;2.60;99.90;;;;;;5075827;28;20060;-96
2022/02/10 19:55:43;;;;;;;50.30;25.23;;;2.60;99.90;;;;;;5076342;28;20024;-96
2022/02/10 19:58:12;;;;;;;51.28;25.60;;;2.60;99.90;;;;;;5076984;28;20025;-96
2022/02/10 20:00:43;;;;;;;54.05;26.25;;;2.60;99.90;;;;;;5080021;28;20028;-96
2022/02/10 20:03:16;;;;;;;74.93;34.78;;;2.60;99.90;;;;;;5076341;28;20115;-96
2022/02/10 20:05:45;;;;;;;64.45;30.75;;;2.60;99.90;;;;;;5075021;28;20031;-96
2022/02/10 20:08:12;;;;;;;59.80;29.77;;;2.50;99.90;;;;;;5074453;28;20493;-95
2022/02/10 20:10:38;;;;;;;68.22;29.08;;;2.50;99.90;;;;;;5074486;28;20432;-96
2022/02/10 20:13:04;;;;;;;54.63;25.70;;;2.50;99.90;;;;;;5074533;28;20025;-96
2022/02/10 20:15:33;;;;;;;49.10;23.98;;;2.40;99.90;;;;;;5074464;28;20077;-96
2022/02/10 20:18:01;;;;;;;51.47;25.40;;;2.40;99.90;;;;;;5073957;28;20028;-96
2022/02/10 20:20:28;;;;;;;52.20;26.10;;;2.40;99.90;;;;;;5077465;28;20490;-96
2022/02/10 20:22:55;;;;;;;63.50;31.70;;;2.40;99.90;;;;;;5077932;28;20037;-96
2022/02/10 20:25:24;;;;;;;64.78;31.52;;;2.40;99.90;;;;;;5084857;28;20025;-96
2022/02/10 20:27:51;;;;;;;55.90;27.73;;;2.30;99.90;;;;;;5083844;28;20597;-96
2022/02/10 20:30:18;;;;;;;56.05;28.55;;;2.30;99.90;;;;;;5071750;28;20060;-96
2022/02/10 20:32:44;;;;;;;56.65;26.17;;;2.30;99.90;;;;;;5082514;28;20425;-96
2022/02/10 20:35:12;;;;;;;53.33;27.40;;;2.20;99.90;;;;;;5081283;28;20028;-96
2022/02/10 20:37:38;;;;;;;55.70;27.30;;;2.20;99.90;;;;;;5079547;28;20059;-96
2022/02/10 20:40:05;;;;;;;46.55;25.15;;;2.20;99.90;;;;;;5080646;28;20029;-96
2022/02/10 20:42:33;;;;;;;54.33;25.65;;;2.10;99.90;;;;;;5079608;28;20021;-96
2022/02/10 20:44:59;;;;;;;58.30;27.60;;;2.10;99.90;;;;;;5063572;28;20120;-96
2022/02/10 20:47:26;;;;;;;54.97;25.88;;;2.10;99.90;;;;;;5078573;28;20067;-96
2022/02/10 20:49:52;;;;;;;57.92;26.70;;;2.10;99.90;;;;;;5078524;28;20035;-96
2022/02/10 20:52:20;;;;;;;59.45;25.38;;;2.00;99.90;;;;;;5081315;28;20025;-96
2022/02/10 20:54:46;;;;;;;59.38;26.38;;;2.00;99.90;;;;;;5083465;28;20036;-96
2022/02/10 20:57:14;;;;;;;54.35;26.80;;;2.00;99.90;;;;;;5080381;28;20072;-96
2022/02/10 20:59:43;;;;;;;64.35;27.95;;;2.00;99.90;;;;;;5082308;28;20028;-96
2022/02/10 21:02:19;;;;;;;65.63;29.38;;;2.00;99.90;;;;;;5080415;28;20055;-96
2022/02/10 21:04:53;;;;;;;63.70;28.27;;;2.00;99.90;;;;;;5081056;28;20045;-96
2022/02/10 21:07:31;;;;;;;67.78;30.25;;;1.90;99.90;;;;;;5078218;28;20028;-96
2022/02/10 21:10:00;;;;;;;80.88;33.92;;;1.90;99.90;;;;;;5078687;28;20119;-96
2022/02/10 21:12:29;;;;;;;68.82;31.60;;;1.90;99.90;;;;;;5075756;28;20031;-96
2022/02/10 21:14:55;;;;;;;61.65;28.65;;;1.90;99.90;;;;;;5076726;28;20042;-96
2022/02/10 21:17:25;;;;;;;68.90;31.90;;;1.80;99.90;;;;;;5078312;28;20522;-96
2022/02/10 21:19:57;;;;;;;63.20;28.13;;;1.80;99.90;;;;;;5075506;28;20041;-96
2022/02/10 21:22:23;;;;;;;58.15;26.50;;;1.80;99.90;;;;;;5074562;28;20082;-96
2022/02/10 21:24:55;;;;;;;57.17;26.42;;;1.80;99.90;;;;;;5073959;28;20021;-96
2022/02/10 21:30:14;;;;;;;62.13;26.05;;;1.70;99.90;;;;;;5074093;28;20085;-96
2022/02/10 21:32:52;;;;;;;58.13;26.05;;;1.70;99.90;;;;;;5074161;28;20020;-96
2022/02/10 21:48:09;;;;;;;61.78;28.70;;;1.50;99.90;;;;;;5079483;28;20427;-96
2022/02/10 22:16:46;;;;;;;68.90;29.90;;;1.90;99.90;;;;;;5082879;28;20378;-96
2022/02/10 22:19:21;;;;;;;74.25;33.05;;;2.00;99.90;;;;;;5078172;28;20024;-96
2022/02/10 22:21:52;;;;;;;71.13;31.55;;;2.10;99.90;;;;;;5077472;28;20071;-96
2022/02/10 22:24:19;;;;;;;70.07;31.50;;;2.10;99.90;;;;;;5077569;28;20016;-96
2022/02/10 22:26:47;;;;;;;69.63;30.50;;;2.20;99.90;;;;;;5077950;28;20020;-96
2022/02/10 22:29:18;;;;;;;67.35;29.40;;;2.20;99.90;;;;;;5077092;28;20024;-96
2022/02/10 22:37:01;;;;;;;69.70;29.75;;;2.40;99.90;;;;;;5077878;28;20024;-96
2022/02/10 22:39:33;;;;;;;58.05;26.60;;;2.40;99.90;;;;;;5076231;28;20032;-96
2022/02/10 22:41:58;;;;;;;62.40;27.35;;;2.50;99.90;;;;;;5076853;28;20048;-96
2022/02/10 22:44:24;;;;;;;78.05;36.25;;;2.50;99.90;;;;;;5076352;28;20016;-96
2022/02/10 22:46:50;;;;;;;92.88;43.55;;;2.50;99.90;;;;;;5076922;28;20059;-96
2022/02/10 22:49:16;;;;;;;66.32;31.50;;;2.50;99.90;;;;;;5076216;28;20070;-96
2022/02/10 22:51:42;;;;;;;66.40;31.90;;;2.60;99.90;;;;;;5075905;28;20024;-96
2022/02/10 22:54:08;;;;;;;69.50;32.58;;;2.60;99.90;;;;;;5075318;28;20031;-96
2022/02/10 22:56:34;;;;;;;65.72;30.80;;;2.60;99.90;;;;;;5075856;28;20032;-96
2022/02/10 22:59:06;;;;;;;72.82;34.03;;;2.60;99.90;;;;;;5075696;28;20024;-96
2022/02/10 23:01:32;;;;;;;68.13;33.17;;;2.60;99.90;;;;;;5075669;28;20032;-96
2022/02/10 23:03:59;;;;;;;72.97;32.85;;;2.70;99.90;;;;;;5075474;28;20021;-96
2022/02/10 23:06:25;;;;;;;63.17;30.50;;;2.70;99.90;;;;;;5075977;28;20021;-96
2022/02/10 23:08:51;;;;;;;65.43;31.20;;;2.70;99.90;;;;;;5075492;28;20033;-96
2022/02/10 23:11:25;;;;;;;64.68;32.47;;;2.70;99.90;;;;;;5076367;28;20158;-96
2022/02/10 23:13:51;;;;;;;61.58;29.80;;;2.80;99.90;;;;;;5075357;28;20145;-96
2022/02/10 23:16:17;;;;;;;65.80;32.13;;;2.80;99.90;;;;;;5075320;28;20566;-96
2022/02/10 23:18:46;;;;;;;76.88;35.88;;;2.80;99.90;;;;;;5075839;28;20024;-96
2022/02/10 23:21:14;;;;;;;68.60;33.47;;;2.80;99.90;;;;;;5075438;28;20045;-96
2022/02/10 23:23:44;;;;;;;70.10;35.03;;;2.80;99.90;;;;;;5075120;28;20028;-96
2022/02/10 23:26:11;;;;;;;66.80;32.20;;;2.80;99.90;;;;;;5075486;28;20017;-96
2022/02/10 23:28:43;;;;;;;67.53;33.80;;;2.80;99.90;;;;;;5075222;28;20107;-95
2022/02/10 23:31:11;;;;;;;72.75;33.97;;;2.90;99.90;;;;;;5074990;28;20031;-96
2022/02/10 23:33:40;;;;;;;75.25;32.75;;;2.80;99.90;;;;;;5074890;28;20036;-96
2022/02/10 23:38:46;;;;;;;73.07;35.45;;;2.90;99.90;;;;;;5076172;28;20042;-96
2022/02/10 23:43:41;;;;;;;100.43;46.25;;;2.80;99.90;;;;;;5076243;28;20370;-96
2022/02/10 23:46:07;;;;;;;144.40;66.72;;;2.80;99.90;;;;;;5074893;28;20027;-96
2022/02/10 23:48:34;;;;;;;76.70;37.63;;;2.80;99.90;;;;;;5074889;28;20107;-96
2022/02/10 23:51:00;;;;;;;108.57;54.17;;;2.80;99.90;;;;;;5075557;28;20024;-96
2022/02/10 23:53:27;;;;;;;74.85;40.95;;;2.80;99.90;;;;;;5074634;28;20031;-96
2022/02/10 23:55:54;;;;;;;74.82;37.65;;;2.80;99.90;;;;;;5075568;28;20032;-96
